createdAt,value
2018-11-29T00:00:42.034Z,-0.66
2018-11-29T00:01:42.628Z,-0.63
2018-11-29T00:02:43.856Z,-0.67
2018-11-29T00:03:44.642Z,-0.66
2018-11-29T00:04:45.074Z,-0.62
2018-11-29T00:05:45.714Z,-0.64
2018-11-29T00:06:45.717Z,-0.64
2018-11-29T00:07:47.222Z,-0.51
2018-11-29T00:08:47.998Z,-0.42
2018-11-29T00:09:49.219Z,-0.45
2018-11-29T00:10:49.722Z,-0.48
2018-11-29T00:11:50.521Z,-0.36
2018-11-29T00:12:52.022Z,-0.33
2018-11-29T00:13:52.901Z,-0.42
2018-11-29T00:14:53.249Z,-0.26
2018-11-29T00:15:54.174Z,-0.39
2018-11-29T00:16:54.197Z,-0.35
2018-11-29T00:17:54.972Z,-0.31
2018-11-29T00:18:56.072Z,-0.28
2018-11-29T00:19:56.682Z,-0.38
2018-11-29T00:20:57.213Z,-0.26
2018-11-29T00:21:57.716Z,-0.31
2018-11-29T00:22:59.219Z,-0.26
2018-11-29T00:23:59.833Z,-0.21
2018-11-29T00:25:00.334Z,-0.28
2018-11-29T00:26:01.402Z,-0.23
2018-11-29T00:27:01.686Z,-0.33
2018-11-29T00:28:03.472Z,-0.27
2018-11-29T00:29:04.526Z,-0.27
2018-11-29T00:30:04.756Z,-0.17
2018-11-29T00:31:05.535Z,-0.24
2018-11-29T00:32:06.530Z,-0.18
2018-11-29T00:33:07.063Z,-0.12
2018-11-29T00:34:07.419Z,-0.12
2018-11-29T00:35:07.920Z,-0.05
2018-11-29T00:36:08.699Z,-0.05
2018-11-29T00:37:09.789Z,0.01
2018-11-29T00:38:10.961Z,0.06
2018-11-29T00:39:12.333Z,0.16
2018-11-29T00:40:12.859Z,0.16
2018-11-29T00:41:13.922Z,0.18
2018-11-29T00:42:14.769Z,0.24
2018-11-29T00:43:15.636Z,0.42
2018-11-29T00:44:16.419Z,0.4
2018-11-29T00:45:17.747Z,0.47
2018-11-29T00:46:17.973Z,0.37
2018-11-29T00:47:18.524Z,0.31
2018-11-29T00:48:19.582Z,0.29
2018-11-29T00:49:20.362Z,0.37
2018-11-29T00:50:20.862Z,0.33
2018-11-29T00:51:22.200Z,0.34
2018-11-29T00:52:22.697Z,0.37
2018-11-29T00:53:23.198Z,0.33
2018-11-29T00:54:23.420Z,0.36
2018-11-29T00:55:24.642Z,0.44
2018-11-29T00:56:25.865Z,0.45
2018-11-29T00:57:26.860Z,0.42
2018-11-29T00:58:27.359Z,0.4
2018-11-29T00:59:28.863Z,0.52
2018-11-29T01:00:29.639Z,0.55
2018-11-29T01:01:30.142Z,0.51
2018-11-29T01:02:31.377Z,0.7
2018-11-29T01:03:32.148Z,0.64
2018-11-29T01:04:33.648Z,0.68
2018-11-29T01:05:34.147Z,0.64
2018-11-29T01:06:34.923Z,0.63
2018-11-29T01:07:36.332Z,0.7
2018-11-29T01:08:37.114Z,0.7
2018-11-29T01:09:37.616Z,0.67
2018-11-29T01:10:39.122Z,0.7
2018-11-29T01:11:39.619Z,0.52
2018-11-29T01:12:40.397Z,0.59
2018-11-29T01:13:40.896Z,0.58
2018-11-29T01:14:41.979Z,0.49
2018-11-29T01:15:42.229Z,0.56
2018-11-29T01:16:43.453Z,0.44
2018-11-29T01:17:44.278Z,0.47
2018-11-29T01:18:45.057Z,0.29
2018-11-29T01:19:46.562Z,0.33
2018-11-29T01:20:46.784Z,0.36
2018-11-29T01:21:48.038Z,0.29
2018-11-29T01:22:49.262Z,0.36
2018-11-29T01:23:50.039Z,0.24
2018-11-29T01:24:50.819Z,0.27
2018-11-29T01:26:03.243Z,0.19
2018-11-29T01:27:03.514Z,0.26
2018-11-29T01:28:05.016Z,0.26
2018-11-29T01:29:06.078Z,0.33
2018-11-29T01:30:06.858Z,0.33
2018-11-29T01:31:07.630Z,0.33
2018-11-29T01:32:08.850Z,0.26
2018-11-29T01:33:10.182Z,0.26
2018-11-29T01:34:10.687Z,0.47
2018-11-29T01:35:11.195Z,0.4
2018-11-29T01:36:11.976Z,0.39
2018-11-29T01:37:11.974Z,0.34
2018-11-29T01:38:12.752Z,0.42
2018-11-29T01:39:13.253Z,0.42
2018-11-29T01:40:14.031Z,0.37
2018-11-29T01:41:14.525Z,0.33
2018-11-29T01:42:15.305Z,0.42
2018-11-29T01:43:16.526Z,0.4
2018-11-29T01:44:17.889Z,0.44
2018-11-29T01:45:18.663Z,0.44
2018-11-29T01:46:19.164Z,0.45
2018-11-29T01:47:19.718Z,0.44
2018-11-29T01:48:20.496Z,0.42
2018-11-29T01:49:21.830Z,0.48
2018-11-29T01:50:22.333Z,0.48
2018-11-29T01:51:23.555Z,0.49
2018-11-29T01:52:25.056Z,0.47
2018-11-29T01:53:26.280Z,0.49
2018-11-29T01:54:26.781Z,0.55
2018-11-29T01:55:28.003Z,0.51
2018-11-29T01:56:28.508Z,0.49
2018-11-29T01:57:29.058Z,0.49
2018-11-29T01:58:29.114Z,0.48
2018-11-29T01:59:29.888Z,0.48
2018-11-29T02:00:30.387Z,0.4
2018-11-29T02:01:30.919Z,0.48
2018-11-29T02:02:32.141Z,0.42
2018-11-29T02:03:33.651Z,0.49
2018-11-29T02:04:34.152Z,0.49
2018-11-29T02:05:34.654Z,0.48
2018-11-29T02:06:35.156Z,0.58
2018-11-29T02:07:35.429Z,0.47
2018-11-29T02:08:36.599Z,0.51
2018-11-29T02:09:37.101Z,0.56
2018-11-29T02:10:37.603Z,0.55
2018-11-29T02:11:38.657Z,0.42
2018-11-29T02:12:39.436Z,0.44
2018-11-29T02:13:40.491Z,0.42
2018-11-29T02:14:41.266Z,0.44
2018-11-29T02:15:41.766Z,0.37
2018-11-29T02:16:42.266Z,0.34
2018-11-29T02:17:42.817Z,0.45
2018-11-29T02:18:43.157Z,0.45
2018-11-29T02:19:43.935Z,0.4
2018-11-29T02:20:45.158Z,0.47
2018-11-29T02:21:46.428Z,0.4
2018-11-29T02:22:47.211Z,0.44
2018-11-29T02:23:47.989Z,0.48
2018-11-29T02:24:49.085Z,0.4
2018-11-29T02:25:49.307Z,0.4
2018-11-29T02:26:49.814Z,0.45
2018-11-29T02:27:50.362Z,0.45
2018-11-29T02:28:50.424Z,0.52
2018-11-29T02:29:51.476Z,0.58
2018-11-29T02:30:52.977Z,0.68
2018-11-29T02:31:54.202Z,0.66
2018-11-29T02:32:55.301Z,0.63
2018-11-29T02:33:56.367Z,0.67
2018-11-29T02:34:57.243Z,0.64
2018-11-29T02:35:59.022Z,0.67
2018-11-29T02:36:59.520Z,0.67
2018-11-29T02:38:00.625Z,0.56
2018-11-29T02:39:01.253Z,0.61
2018-11-29T02:40:03.156Z,0.66
2018-11-29T02:41:03.524Z,0.58
2018-11-29T02:42:04.579Z,0.56
2018-11-29T02:43:04.917Z,0.66
2018-11-29T02:44:05.695Z,0.63
2018-11-29T02:45:06.317Z,0.61
2018-11-29T02:46:07.097Z,0.49
2018-11-29T02:47:08.150Z,0.61
2018-11-29T02:48:09.005Z,0.55
2018-11-29T02:49:09.792Z,0.71
2018-11-29T02:50:10.847Z,0.74
2018-11-29T02:51:12.222Z,0.67
2018-11-29T02:52:12.001Z,0.68
2018-11-29T02:53:13.228Z,0.64
2018-11-29T02:54:14.287Z,0.7
2018-11-29T02:55:14.352Z,0.73
2018-11-29T02:56:15.147Z,0.71
2018-11-29T02:57:16.052Z,0.73
2018-11-29T02:58:16.440Z,0.77
2018-11-29T02:59:17.611Z,0.84
2018-11-29T03:00:18.182Z,0.78
2018-11-29T03:01:19.239Z,0.74
2018-11-29T03:02:20.307Z,0.91
2018-11-29T03:03:21.087Z,0.81
2018-11-29T03:04:21.870Z,0.85
2018-11-29T03:05:22.925Z,0.77
2018-11-29T03:06:23.995Z,0.71
2018-11-29T03:07:24.219Z,0.7
2018-11-29T03:08:25.489Z,0.64
2018-11-29T03:09:25.844Z,0.64
2018-11-29T03:10:26.178Z,0.66
2018-11-29T03:11:27.236Z,0.64
2018-11-29T03:12:27.753Z,0.68
2018-11-29T03:13:28.546Z,0.76
2018-11-29T03:14:29.603Z,0.78
2018-11-29T03:15:30.383Z,0.82
2018-11-29T03:16:32.438Z,0.85
2018-11-29T03:17:32.658Z,0.95
2018-11-29T03:18:33.776Z,0.95
2018-11-29T03:19:33.831Z,0.94
2018-11-29T03:20:33.887Z,1.1
2018-11-29T03:21:35.946Z,1.02
2018-11-29T03:22:36.575Z,0.82
2018-11-29T03:23:37.636Z,0.73
2018-11-29T03:24:37.977Z,0.67
2018-11-29T03:25:38.476Z,0.63
2018-11-29T03:26:39.532Z,0.4
2018-11-29T03:27:40.345Z,0.45
2018-11-29T03:28:41.179Z,0.4
2018-11-29T03:29:42.516Z,0.33
2018-11-29T03:30:43.031Z,0.48
2018-11-29T03:31:43.925Z,0.51
2018-11-29T03:32:44.873Z,0.58
2018-11-29T03:33:46.438Z,0.55
2018-11-29T03:34:46.770Z,0.49
2018-11-29T03:35:47.547Z,0.47
2018-11-29T03:36:48.339Z,0.4
2018-11-29T03:37:48.838Z,0.55
2018-11-29T03:38:49.408Z,0.47
2018-11-29T03:39:50.461Z,0.55
2018-11-29T03:40:51.988Z,0.64
2018-11-29T03:41:53.602Z,0.61
2018-11-29T03:42:53.102Z,0.63
2018-11-29T03:43:54.200Z,0.78
2018-11-29T03:44:54.698Z,0.84
2018-11-29T03:45:56.478Z,0.88
2018-11-29T03:46:56.534Z,0.95
2018-11-29T03:47:57.595Z,1
2018-11-29T03:48:58.992Z,1.12
2018-11-29T03:50:00.054Z,1.14
2018-11-29T03:51:00.388Z,1.1
2018-11-29T03:52:01.166Z,1.13
2018-11-29T03:53:01.715Z,1.16
2018-11-29T03:54:02.886Z,1.22
2018-11-29T03:55:04.494Z,1.24
2018-11-29T03:56:04.560Z,1.2
2018-11-29T03:57:05.343Z,1.16
2018-11-29T03:58:05.958Z,1.22
2018-11-29T03:59:07.063Z,1.13
2018-11-29T04:00:07.439Z,1.14
2018-11-29T04:01:08.221Z,1.24
2018-11-29T04:02:09.014Z,1.12
2018-11-29T04:03:09.516Z,1.1
2018-11-29T04:04:11.167Z,1.09
2018-11-29T04:05:11.034Z,1.13
2018-11-29T04:06:11.550Z,1.13
2018-11-29T04:07:12.330Z,1.13
2018-11-29T04:08:13.384Z,1.02
2018-11-29T04:09:13.957Z,1.03
2018-11-29T04:10:14.295Z,1.04
2018-11-29T04:11:15.915Z,1.12
2018-11-29T04:12:16.139Z,1.06
2018-11-29T04:13:17.192Z,1.06
2018-11-29T04:14:16.971Z,1.14
2018-11-29T04:15:18.043Z,1.12
2018-11-29T04:16:19.543Z,1.24
2018-11-29T04:17:20.629Z,1.32
2018-11-29T04:18:21.141Z,1.32
2018-11-29T04:19:22.248Z,1.32
2018-11-29T04:20:22.754Z,1.36
2018-11-29T04:21:23.809Z,1.42
2018-11-29T04:22:24.865Z,1.56
2018-11-29T04:23:24.934Z,1.45
2018-11-29T04:24:25.850Z,1.45
2018-11-29T04:25:26.361Z,1.56
2018-11-29T04:26:27.022Z,1.61
2018-11-29T04:27:28.077Z,1.66
2018-11-29T04:28:29.134Z,1.58
2018-11-29T04:29:29.421Z,1.68
2018-11-29T04:30:29.923Z,1.67
2018-11-29T04:31:31.437Z,1.6
2018-11-29T04:32:32.217Z,1.67
2018-11-29T04:33:32.721Z,1.6
2018-11-29T04:34:34.054Z,1.61
2018-11-29T04:35:35.833Z,1.6
2018-11-29T04:36:35.609Z,1.64
2018-11-29T04:37:36.420Z,1.57
2018-11-29T04:38:37.198Z,1.6
2018-11-29T04:39:38.589Z,1.58
2018-11-29T04:40:39.665Z,1.6
2018-11-29T04:41:40.479Z,1.6
2018-11-29T04:42:42.116Z,1.57
2018-11-29T04:43:42.906Z,1.64
2018-11-29T04:44:44.416Z,1.68
2018-11-29T04:45:45.483Z,1.75
2018-11-29T04:46:46.258Z,1.66
2018-11-29T04:47:47.334Z,1.79
2018-11-29T04:48:47.868Z,1.7
2018-11-29T04:49:48.997Z,1.71
2018-11-29T04:50:51.360Z,1.71
2018-11-29T04:51:52.148Z,1.7
2018-11-29T04:52:53.228Z,1.63
2018-11-29T04:53:54.281Z,1.7
2018-11-29T04:54:54.345Z,1.79
2018-11-29T04:55:55.120Z,1.76
2018-11-29T04:56:56.488Z,1.63
2018-11-29T04:57:57.269Z,1.71
2018-11-29T04:58:58.058Z,1.67
2018-11-29T04:59:58.912Z,1.76
2018-11-29T05:01:00.036Z,1.81
2018-11-29T05:02:00.534Z,1.81
2018-11-29T05:03:01.712Z,1.71
2018-11-29T05:04:01.486Z,1.79
2018-11-29T05:05:02.583Z,1.76
2018-11-29T05:06:03.084Z,1.86
2018-11-29T05:07:04.142Z,1.79
2018-11-29T05:08:04.929Z,1.84
2018-11-29T05:09:05.709Z,1.89
2018-11-29T05:10:06.544Z,1.81
2018-11-29T05:11:07.600Z,1.85
2018-11-29T05:12:08.436Z,1.82
2018-11-29T05:13:09.227Z,1.86
2018-11-29T05:14:10.173Z,1.79
2018-11-29T05:15:10.952Z,1.89
2018-11-29T05:16:12.008Z,1.92
2018-11-29T05:17:12.509Z,1.86
2018-11-29T05:18:13.564Z,1.93
2018-11-29T05:19:14.063Z,1.89
2018-11-29T05:20:15.741Z,1.93
2018-11-29T05:21:15.972Z,1.86
2018-11-29T05:22:17.033Z,1.81
2018-11-29T05:23:17.820Z,1.86
2018-11-29T05:24:18.163Z,1.82
2018-11-29T05:25:19.397Z,1.79
2018-11-29T05:26:19.180Z,1.88
2018-11-29T05:27:20.235Z,1.85
2018-11-29T05:28:20.459Z,1.82
2018-11-29T05:29:21.686Z,1.86
2018-11-29T05:30:22.793Z,1.86
2018-11-29T05:31:23.293Z,1.82
2018-11-29T05:32:24.905Z,1.89
2018-11-29T05:33:25.962Z,1.86
2018-11-29T05:34:26.471Z,1.84
2018-11-29T05:35:26.966Z,1.95
2018-11-29T05:36:28.340Z,1.89
2018-11-29T05:37:29.119Z,1.85
2018-11-29T05:38:30.622Z,1.89
2018-11-29T05:39:31.122Z,1.82
2018-11-29T05:40:32.710Z,1.86
2018-11-29T05:41:33.492Z,1.95
2018-11-29T05:42:33.717Z,1.95
2018-11-29T05:43:34.214Z,1.95
2018-11-29T05:44:34.990Z,2
2018-11-29T05:45:36.491Z,1.95
2018-11-29T05:46:37.712Z,1.93
2018-11-29T05:47:38.820Z,1.97
2018-11-29T05:48:39.878Z,1.93
2018-11-29T05:49:40.377Z,2.03
2018-11-29T05:50:40.654Z,2.05
2018-11-29T05:51:41.433Z,2.04
2018-11-29T05:52:42.929Z,2.1
2018-11-29T05:53:44.428Z,2.15
2018-11-29T05:54:44.491Z,2.12
2018-11-29T05:55:45.715Z,2.08
2018-11-29T05:56:46.494Z,2.18
2018-11-29T05:57:47.273Z,2.12
2018-11-29T05:58:47.773Z,2.23
2018-11-29T05:59:48.551Z,2.25
2018-11-29T06:00:49.120Z,2.21
2018-11-29T06:01:49.621Z,2.37
2018-11-29T06:02:50.157Z,2.34
2018-11-29T06:03:51.379Z,2.25
2018-11-29T06:04:51.880Z,2.15
2018-11-29T06:05:52.663Z,2.1
2018-11-29T06:06:53.439Z,2.08
2018-11-29T06:07:54.660Z,2.22
2018-11-29T06:08:55.887Z,2.19
2018-11-29T06:09:56.397Z,2.23
2018-11-29T06:10:57.396Z,2.3
2018-11-29T06:11:58.451Z,2.26
2018-11-29T06:12:59.230Z,2.22
2018-11-29T06:13:59.732Z,2.28
2018-11-29T06:15:01.349Z,2.3
2018-11-29T06:16:01.853Z,2.3
2018-11-29T06:17:02.911Z,2.22
2018-11-29T06:18:03.724Z,2.28
2018-11-29T06:19:04.229Z,2.3
2018-11-29T06:20:05.451Z,2.36
2018-11-29T06:21:05.724Z,2.39
2018-11-29T06:22:07.057Z,2.43
2018-11-29T06:23:06.837Z,2.46
2018-11-29T06:24:07.627Z,2.5
2018-11-29T06:24:19.830Z,2.46
2018-11-29T06:25:20.808Z,2.54
2018-11-29T06:26:20.587Z,2.52
2018-11-29T06:27:21.664Z,2.55
2018-11-29T06:28:22.176Z,2.43
2018-11-29T06:29:23.368Z,2.47
2018-11-29T06:30:23.584Z,2.44
2018-11-29T06:31:24.363Z,2.54
2018-11-29T06:32:24.589Z,2.46
2018-11-29T06:33:25.293Z,2.46
2018-11-29T06:34:25.745Z,2.46
2018-11-29T06:35:26.899Z,2.43
2018-11-29T06:36:27.678Z,2.4
2018-11-29T06:37:28.181Z,2.32
2018-11-29T06:38:29.551Z,2.32
2018-11-29T06:39:30.050Z,2.25
2018-11-29T06:40:31.109Z,2.22
2018-11-29T06:41:31.610Z,2.21
2018-11-29T06:42:32.393Z,2.19
2018-11-29T06:43:32.939Z,2.25
2018-11-29T06:44:33.443Z,2.32
2018-11-29T06:45:33.859Z,2.34
2018-11-29T06:46:34.362Z,2.41
2018-11-29T06:47:35.424Z,2.44
2018-11-29T06:48:35.929Z,2.4
2018-11-29T06:49:37.435Z,2.44
2018-11-29T06:50:38.662Z,2.57
2018-11-29T06:51:39.172Z,2.72
2018-11-29T06:52:40.396Z,2.68
2018-11-29T06:53:42.176Z,2.69
2018-11-29T06:54:42.679Z,2.76
2018-11-29T06:55:43.281Z,2.73
2018-11-29T06:56:44.056Z,2.8
2018-11-29T06:57:44.836Z,2.73
2018-11-29T06:58:45.921Z,2.8
2018-11-29T06:59:47.256Z,2.73
2018-11-29T07:00:46.759Z,2.72
2018-11-29T07:01:47.984Z,2.72
2018-11-29T07:02:50.054Z,2.68
2018-11-29T07:03:50.586Z,2.69
2018-11-29T07:04:51.369Z,2.7
2018-11-29T07:05:51.647Z,2.7
2018-11-29T07:06:52.431Z,2.61
2018-11-29T07:07:53.211Z,2.62
2018-11-29T07:08:53.723Z,2.61
2018-11-29T07:09:54.610Z,2.7
2018-11-29T07:10:55.654Z,2.7
2018-11-29T07:11:56.518Z,2.72
2018-11-29T07:12:57.293Z,2.69
2018-11-29T07:13:58.075Z,2.68
2018-11-29T07:14:58.624Z,2.72
2018-11-29T07:16:01.343Z,2.77
2018-11-29T07:17:00.898Z,2.73
2018-11-29T07:18:01.696Z,2.72
2018-11-29T07:19:02.202Z,2.76
2018-11-29T07:20:02.709Z,2.76
2018-11-29T07:21:03.486Z,2.87
2018-11-29T07:22:03.996Z,2.9
2018-11-29T07:23:05.539Z,2.93
2018-11-29T07:24:06.320Z,3.06
2018-11-29T07:25:06.551Z,3.18
2018-11-29T07:26:07.743Z,3.27
2018-11-29T07:27:09.530Z,3.36
2018-11-29T07:28:10.043Z,3.59
2018-11-29T07:29:10.549Z,3.58
2018-11-29T07:29:22.491Z,3.56
2018-11-29T07:30:23.376Z,3.46
2018-11-29T07:31:23.883Z,3.33
2018-11-29T07:32:25.505Z,3.29
2018-11-29T07:33:26.013Z,3.09
2018-11-29T07:34:30.473Z,2.93
2018-11-29T07:34:39.997Z,2.77
2018-11-29T07:34:53.397Z,2.76
2018-11-29T07:35:05.372Z,2.8
2018-11-29T07:35:18.474Z,2.73
2018-11-29T07:35:31.857Z,2.8
2018-11-29T07:35:44.588Z,2.75
2018-11-29T07:35:58.517Z,2.79
2018-11-29T07:36:08.555Z,2.73
2018-11-29T07:36:19.447Z,2.76
2018-11-29T07:37:19.681Z,2.77
2018-11-29T07:38:23.158Z,2.79
2018-11-29T07:39:21.500Z,2.83
2018-11-29T07:40:22.847Z,2.88
2018-11-29T07:41:24.886Z,2.77
2018-11-29T07:42:25.045Z,2.73
2018-11-29T07:43:25.553Z,2.64
2018-11-29T07:44:26.338Z,2.7
2018-11-29T07:45:27.124Z,2.72
2018-11-29T07:46:27.630Z,2.69
2018-11-29T07:47:28.189Z,2.7
2018-11-29T07:48:28.989Z,2.82
2018-11-29T07:49:29.497Z,2.97
2018-11-29T07:50:30.317Z,3
2018-11-29T07:51:30.628Z,2.98
2018-11-29T07:52:31.685Z,3.08
2018-11-29T07:53:32.470Z,3.03
2018-11-29T07:54:32.980Z,3.11
2018-11-29T07:55:33.520Z,3.24
2018-11-29T07:56:34.583Z,3.31
2018-11-29T07:57:35.976Z,3.4
2018-11-29T07:58:36.761Z,3.45
2018-11-29T07:59:37.548Z,3.48
2018-11-29T08:00:38.057Z,3.41
2018-11-29T08:01:39.121Z,3.55
2018-11-29T08:02:39.668Z,3.64
2018-11-29T08:03:39.727Z,3.68
2018-11-29T08:04:40.236Z,3.71
2018-11-29T08:05:41.577Z,3.82
2018-11-29T08:06:43.087Z,3.91
2018-11-29T08:07:48.692Z,4.07
2018-11-29T08:08:49.221Z,4.16
2018-11-29T08:09:50.454Z,4.21
2018-11-29T08:10:51.681Z,4.38
2018-11-29T08:11:52.188Z,4.48
2018-11-29T08:12:53.266Z,4.56
2018-11-29T08:13:53.499Z,4.49
2018-11-29T08:14:54.409Z,4.5
2018-11-29T08:15:55.199Z,4.5
2018-11-29T08:16:56.259Z,4.63
2018-11-29T08:17:56.535Z,4.64
2018-11-29T08:18:57.331Z,4.66
2018-11-29T08:19:57.840Z,4.74
2018-11-29T08:20:59.401Z,4.6
2018-11-29T08:21:59.924Z,4.61
2018-11-29T08:23:00.985Z,4.63
2018-11-29T08:24:01.496Z,4.45
2018-11-29T08:25:03.007Z,4.45
2018-11-29T08:26:03.347Z,4.48
2018-11-29T08:27:03.854Z,4.46
2018-11-29T08:28:04.695Z,4.46
2018-11-29T08:29:05.206Z,4.4
2018-11-29T08:30:06.270Z,4.28
2018-11-29T08:31:06.333Z,4.32
2018-11-29T08:32:07.570Z,4.16
2018-11-29T08:33:08.799Z,4.14
2018-11-29T08:34:10.038Z,4.21
2018-11-29T08:35:10.829Z,4.2
2018-11-29T08:36:11.339Z,4.28
2018-11-29T08:37:12.571Z,4.28
2018-11-29T08:38:14.129Z,4.34
2018-11-29T08:39:14.359Z,4.39
2018-11-29T08:40:15.421Z,4.45
2018-11-29T08:41:16.210Z,4.48
2018-11-29T08:42:16.722Z,4.57
2018-11-29T08:43:17.502Z,4.48
2018-11-29T08:44:17.769Z,4.56
2018-11-29T08:45:18.557Z,4.63
2018-11-29T08:46:19.345Z,4.74
2018-11-29T08:47:20.133Z,4.86
2018-11-29T08:48:21.006Z,4.75
2018-11-29T08:49:22.218Z,4.94
2018-11-29T08:50:23.006Z,5.02
2018-11-29T08:51:23.527Z,5.12
2018-11-29T08:52:24.564Z,5.07
2018-11-29T08:53:25.349Z,5.07
2018-11-29T08:54:26.019Z,5.13
2018-11-29T08:55:26.818Z,5.18
2018-11-29T08:56:27.078Z,5.13
2018-11-29T08:57:27.647Z,5.18
2018-11-29T08:58:28.209Z,5.12
2018-11-29T08:59:29.001Z,5.02
2018-11-29T09:00:29.810Z,5.1
2018-11-29T09:01:31.040Z,5.07
2018-11-29T09:02:31.826Z,5.04
2018-11-29T09:03:32.619Z,5.08
2018-11-29T09:04:35.253Z,5.08
2018-11-29T09:05:35.680Z,5.05
2018-11-29T09:06:36.466Z,5.04
2018-11-29T09:07:37.249Z,5.15
2018-11-29T09:08:38.943Z,5.18
2018-11-29T09:09:38.731Z,5.08
2018-11-29T09:10:40.245Z,5.1
2018-11-29T09:11:40.757Z,5.13
2018-11-29T09:12:41.273Z,5.04
2018-11-29T09:13:41.856Z,4.95
2018-11-29T09:14:42.656Z,5.01
2018-11-29T09:15:43.452Z,5.07
2018-11-29T09:16:43.957Z,5.07
2018-11-29T09:17:45.041Z,5.04
2018-11-29T09:18:45.649Z,5.04
2018-11-29T09:19:47.159Z,5.05
2018-11-29T09:20:47.664Z,5.01
2018-11-29T09:21:49.006Z,5.1
2018-11-29T09:22:49.802Z,5.02
2018-11-29T09:23:50.589Z,5.18
2018-11-29T09:24:51.096Z,5.33
2018-11-29T09:25:52.605Z,5.37
2018-11-29T09:26:54.117Z,5.47
2018-11-29T09:27:54.623Z,5.44
2018-11-29T09:28:55.628Z,5.55
2018-11-29T09:29:56.860Z,5.43
2018-11-29T09:30:58.091Z,5.52
2018-11-29T09:31:58.876Z,5.47
2018-11-29T09:33:00.109Z,5.61
2018-11-29T09:34:01.188Z,5.91
2018-11-29T09:35:01.696Z,5.91
2018-11-29T09:36:03.035Z,5.95
2018-11-29T09:37:03.847Z,5.88
2018-11-29T09:38:04.650Z,6.02
2018-11-29T09:39:04.658Z,6.17
2018-11-29T09:40:06.002Z,6.35
2018-11-29T09:41:06.792Z,6.57
2018-11-29T09:42:07.609Z,6.7
2018-11-29T09:43:08.157Z,6.85
2018-11-29T09:44:09.240Z,6.75
2018-11-29T09:45:10.028Z,6.82
2018-11-29T09:46:11.265Z,7.13
2018-11-29T09:47:12.499Z,7.46
2018-11-29T09:48:13.367Z,7.66
2018-11-29T09:49:13.654Z,7.67
2018-11-29T09:50:14.439Z,7.77
2018-11-29T09:51:14.950Z,8.13
2018-11-29T09:52:16.187Z,8.28
2018-11-29T09:53:16.935Z,8.39
2018-11-29T09:54:17.162Z,8.39
2018-11-29T09:55:17.954Z,8.64
2018-11-29T09:56:18.468Z,8.95
2018-11-29T09:57:19.534Z,9.44
2018-11-29T09:58:20.045Z,9.85
2018-11-29T09:59:20.691Z,10.27
2018-11-29T10:00:34.027Z,10.02
2018-11-29T10:01:34.641Z,9.64
2018-11-29T10:02:34.940Z,9.44
2018-11-29T10:03:36.449Z,9.27
2018-11-29T10:04:36.965Z,9.15
2018-11-29T10:05:38.309Z,9.09
2018-11-29T10:06:39.098Z,9
2018-11-29T10:07:40.167Z,9.02
2018-11-29T10:08:41.234Z,8.68
2018-11-29T10:09:42.028Z,8.52
2018-11-29T10:10:43.538Z,8.39
2018-11-29T10:11:43.820Z,8.14
2018-11-29T10:12:44.608Z,7.93
2018-11-29T10:13:47.623Z,7.8
2018-11-29T10:14:48.860Z,7.72
2018-11-29T10:15:49.374Z,7.8
2018-11-29T10:16:50.162Z,7.93
2018-11-29T10:17:51.031Z,7.9
2018-11-29T10:18:50.890Z,8.08
2018-11-29T10:19:51.406Z,8.21
2018-11-29T10:20:51.640Z,8.23
2018-11-29T10:21:52.646Z,8.2
2018-11-29T10:22:53.176Z,8.24
2018-11-29T10:23:53.688Z,8.27
2018-11-29T10:24:54.479Z,8.24
2018-11-29T10:25:55.547Z,8.24
2018-11-29T10:26:56.340Z,8.26
2018-11-29T10:27:58.135Z,8.32
2018-11-29T10:28:58.483Z,8.32
2018-11-29T10:29:59.154Z,8.32
2018-11-29T10:30:59.663Z,8.34
2018-11-29T10:32:00.567Z,8.42
2018-11-29T10:33:01.635Z,8.63
2018-11-29T10:34:01.878Z,8.66
2018-11-29T10:35:02.667Z,8.81
2018-11-29T10:36:04.181Z,8.86
2018-11-29T10:37:04.973Z,8.81
2018-11-29T10:38:06.209Z,8.84
2018-11-29T10:39:07.440Z,8.99
2018-11-29T10:40:08.795Z,8.99
2018-11-29T10:41:09.324Z,8.93
2018-11-29T10:42:09.607Z,9.13
2018-11-29T10:43:10.459Z,9.18
2018-11-29T10:44:11.529Z,9.3
2018-11-29T10:45:12.489Z,8.97
2018-11-29T10:46:12.542Z,8.86
2018-11-29T10:47:13.057Z,8.95
2018-11-29T10:48:13.634Z,9.13
2018-11-29T10:49:14.872Z,9.21
2018-11-29T10:50:16.387Z,9.39
2018-11-29T10:51:17.849Z,9.52
2018-11-29T10:52:18.670Z,9.66
2018-11-29T10:53:19.203Z,9.84
2018-11-29T10:54:19.998Z,9.74
2018-11-29T10:55:21.687Z,9.66
2018-11-29T10:56:21.607Z,9.62
2018-11-29T10:57:22.299Z,9.47
2018-11-29T10:58:23.162Z,9.31
2018-11-29T10:59:24.231Z,9.4
2018-11-29T11:00:24.905Z,9.62
2018-11-29T11:01:26.098Z,9.69
2018-11-29T11:02:26.782Z,9.56
2018-11-29T11:03:28.593Z,9.55
2018-11-29T11:04:28.361Z,9.52
2018-11-29T11:05:29.803Z,9.52
2018-11-29T11:06:30.570Z,9.49
2018-11-29T11:07:31.645Z,8.96
2018-11-29T11:08:32.160Z,8.75
2018-11-29T11:09:33.029Z,8.6
2018-11-29T11:10:33.827Z,8.61
2018-11-29T11:11:34.343Z,8.6
2018-11-29T11:12:35.380Z,8.44
2018-11-29T11:13:35.879Z,8.09
2018-11-29T11:14:37.502Z,8.03
2018-11-29T11:15:38.035Z,7.91
2018-11-29T11:16:39.383Z,7.95
2018-11-29T11:17:44.266Z,7.95
2018-11-29T11:18:42.392Z,7.95
2018-11-29T11:19:42.966Z,7.91
2018-11-29T11:20:44.422Z,8.08
2018-11-29T11:21:45.522Z,8.03
2018-11-29T11:22:46.070Z,8.01
2018-11-29T11:23:46.862Z,7.87
2018-11-29T11:24:48.442Z,7.88
2018-11-29T11:25:49.376Z,7.74
2018-11-29T11:26:49.740Z,7.75
2018-11-29T11:27:51.375Z,7.95
2018-11-29T11:28:52.185Z,8.02
2018-11-29T11:29:53.109Z,8.2
2018-11-29T11:30:53.902Z,8.28
2018-11-29T11:31:54.418Z,8.41
2018-11-29T11:32:54.728Z,8.46
2018-11-29T11:33:55.254Z,8.41
2018-11-29T11:34:55.764Z,8.23
2018-11-29T11:35:56.286Z,8.13
2018-11-29T11:36:56.844Z,8.14
2018-11-29T11:37:57.489Z,8.21
2018-11-29T11:38:58.287Z,8.21
2018-11-29T11:39:59.795Z,8.27
2018-11-29T11:41:02.219Z,8.17
2018-11-29T11:42:02.384Z,8.06
2018-11-29T11:43:08.781Z,8.14
2018-11-29T11:43:15.558Z,7.96
2018-11-29T11:44:17.653Z,8.03
2018-11-29T11:45:17.426Z,7.93
2018-11-29T11:46:18.219Z,8.2
2018-11-29T11:47:19.015Z,8.17
2018-11-29T11:48:19.532Z,8.2
2018-11-29T11:49:21.149Z,8.11
2018-11-29T11:50:22.944Z,8.13
2018-11-29T11:51:23.527Z,8.18
2018-11-29T11:52:24.495Z,8.26
2018-11-29T11:53:24.472Z,8.31
2018-11-29T11:54:26.607Z,8.42
2018-11-29T11:55:40.019Z,8.34
2018-11-29T11:56:39.410Z,8.45
2018-11-29T11:57:39.926Z,8.63
2018-11-29T11:58:40.453Z,8.77
2018-11-29T11:59:41.552Z,8.79
2018-11-29T12:00:42.137Z,8.74
2018-11-29T12:01:43.395Z,8.74
2018-11-29T12:02:45.374Z,8.71
2018-11-29T12:03:45.650Z,8.52
2018-11-29T12:04:49.875Z,8.32
2018-11-29T12:05:50.493Z,8.13
2018-11-29T12:06:51.678Z,7.99
2018-11-29T12:07:52.763Z,8.16
2018-11-29T12:08:54.155Z,8.36
2018-11-29T12:09:54.947Z,8.61
2018-11-29T12:10:56.291Z,8.72
2018-11-29T12:11:56.641Z,9.02
2018-11-29T12:12:57.789Z,9.11
2018-11-29T12:13:58.081Z,9.03
2018-11-29T12:14:58.599Z,9.24
2018-11-29T12:15:59.948Z,9.3
2018-11-29T12:16:59.956Z,9.39
2018-11-29T12:18:01.191Z,9.4
2018-11-29T12:19:03.697Z,9.34
2018-11-29T12:20:05.490Z,9.11
2018-11-29T12:21:06.010Z,9.27
2018-11-29T12:22:11.410Z,9.51
2018-11-29T12:22:20.011Z,9.49
2018-11-29T12:23:20.477Z,9.69
2018-11-29T12:24:21.081Z,9.76
2018-11-29T12:25:21.871Z,9.82
2018-11-29T12:26:22.662Z,9.74
2018-11-29T12:27:24.311Z,9.67
2018-11-29T12:28:25.740Z,9.67
2018-11-29T12:29:26.826Z,9.49
2018-11-29T12:30:27.617Z,9.31
2018-11-29T12:31:28.695Z,9.12
2018-11-29T12:32:29.489Z,8.96
2018-11-29T12:33:30.913Z,8.74
2018-11-29T12:34:31.378Z,8.69
2018-11-29T12:35:32.105Z,8.61
2018-11-29T12:36:34.445Z,8.6
2018-11-29T12:37:33.588Z,8.49
2018-11-29T12:38:34.865Z,8.42
2018-11-29T12:39:36.021Z,8.38
2018-11-29T12:40:36.339Z,8.2
2018-11-29T12:41:37.648Z,8.09
2018-11-29T12:42:42.307Z,8.13
2018-11-29T12:43:42.801Z,7.8
2018-11-29T12:44:43.312Z,7.81
2018-11-29T12:45:43.853Z,7.64
2018-11-29T12:46:45.207Z,7.7
2018-11-29T12:47:45.717Z,7.78
2018-11-29T12:48:50.093Z,7.72
2018-11-29T12:49:48.288Z,7.83
2018-11-29T12:50:49.077Z,7.67
2018-11-29T12:51:49.920Z,7.7
2018-11-29T12:52:50.459Z,7.7
2018-11-29T12:53:51.478Z,7.56
2018-11-29T12:54:52.768Z,7.61
2018-11-29T12:55:53.562Z,7.61
2018-11-29T12:56:53.919Z,7.58
2018-11-29T12:58:06.604Z,7.55
2018-11-29T12:59:07.168Z,7.62
2018-11-29T13:00:07.677Z,7.84
2018-11-29T13:01:10.724Z,7.84
2018-11-29T13:01:23.839Z,7.8
2018-11-29T13:01:35.823Z,7.88
2018-11-29T13:01:47.889Z,7.88
2018-11-29T13:02:48.888Z,8.08
2018-11-29T13:02:58.110Z,8.08
2018-11-29T13:03:57.978Z,8.23
2018-11-29T13:04:59.508Z,8.34
2018-11-29T13:05:59.577Z,8.34
2018-11-29T13:07:01.088Z,8.38
2018-11-29T13:08:01.610Z,8.31
2018-11-29T13:09:02.405Z,8.27
2018-11-29T13:10:03.579Z,8.28
2018-11-29T13:11:04.817Z,8.24
2018-11-29T13:11:21.191Z,8.41
2018-11-29T13:11:34.040Z,8.41
2018-11-29T13:11:44.637Z,8.34
2018-11-29T13:12:42.998Z,8.36
2018-11-29T13:13:44.235Z,8.35
2018-11-29T13:14:45.036Z,8.39
2018-11-29T13:15:46.389Z,8.42
2018-11-29T13:16:46.649Z,8.36